sensor_id;sensor_type;location;lat;lon;timestamp;P1;durP1;ratioP1;P2;durP2;ratioP2
18505;SDS011;9382;53.242;10.438;2023-12-20T00:01:03;5.30;;;3.17;;
18505;SDS011;9382;53.242;10.438;2023-12-20T00:03:29;12.40;;;3.77;;
18505;SDS011;9382;53.242;10.438;2023-12-20T00:05:56;8.83;;;3.47;;
18505;SDS011;9382;53.242;10.438;2023-12-20T00:08:23;7.47;;;3.07;;
18505;SDS011;9382;53.242;10.438;2023-12-20T00:10:50;9.47;;;3.50;;
18505;SDS011;9382;53.242;10.438;2023-12-20T00:13:16;10.70;;;2.80;;
18505;SDS011;9382;53.242;10.438;2023-12-20T00:15:45;11.97;;;3.00;;
18505;SDS011;9382;53.242;10.438;2023-12-20T00:18:11;15.80;;;3.67;;
18505;SDS011;9382;53.242;10.438;2023-12-20T00:20:38;10.60;;;2.67;;
18505;SDS011;9382;53.242;10.438;2023-12-20T00:23:05;6.67;;;2.97;;
18505;SDS011;9382;53.242;10.438;2023-12-20T00:25:32;7.60;;;2.40;;
18505;SDS011;9382;53.242;10.438;2023-12-20T00:27:59;7.63;;;3.40;;
18505;SDS011;9382;53.242;10.438;2023-12-20T00:30:27;5.90;;;2.80;;
18505;SDS011;9382;53.242;10.438;2023-12-20T00:32:55;9.97;;;2.63;;
18505;SDS011;9382;53.242;10.438;2023-12-20T00:35:22;4.93;;;2.43;;
18505;SDS011;9382;53.242;10.438;2023-12-20T00:37:48;10.57;;;2.80;;
18505;SDS011;9382;53.242;10.438;2023-12-20T00:40:15;13.80;;;3.00;;
18505;SDS011;9382;53.242;10.438;2023-12-20T00:42:42;8.40;;;2.77;;
18505;SDS011;9382;53.242;10.438;2023-12-20T00:45:09;6.03;;;2.57;;
18505;SDS011;9382;53.242;10.438;2023-12-20T00:47:36;11.13;;;2.83;;
18505;SDS011;9382;53.242;10.438;2023-12-20T00:50:04;8.23;;;2.83;;
18505;SDS011;9382;53.242;10.438;2023-12-20T00:52:32;11.13;;;3.37;;
18505;SDS011;9382;53.242;10.438;2023-12-20T00:54:59;9.00;;;2.90;;
18505;SDS011;9382;53.242;10.438;2023-12-20T00:57:26;9.47;;;2.40;;
18505;SDS011;9382;53.242;10.438;2023-12-20T00:59:52;6.87;;;2.40;;
18505;SDS011;9382;53.242;10.438;2023-12-20T01:02:19;6.47;;;2.63;;
18505;SDS011;9382;53.242;10.438;2023-12-20T01:04:46;6.67;;;2.40;;
18505;SDS011;9382;53.242;10.438;2023-12-20T01:07:14;6.03;;;2.23;;
18505;SDS011;9382;53.242;10.438;2023-12-20T01:09:41;7.70;;;2.93;;
18505;SDS011;9382;53.242;10.438;2023-12-20T01:12:12;9.60;;;2.40;;
18505;SDS011;9382;53.242;10.438;2023-12-20T01:14:38;4.77;;;2.60;;
18505;SDS011;9382;53.242;10.438;2023-12-20T01:17:05;8.73;;;3.10;;
18505;SDS011;9382;53.242;10.438;2023-12-20T01:19:32;7.83;;;2.67;;
18505;SDS011;9382;53.242;10.438;2023-12-20T01:21:59;9.60;;;3.27;;
18505;SDS011;9382;53.242;10.438;2023-12-20T01:24:27;5.87;;;2.30;;
18505;SDS011;9382;53.242;10.438;2023-12-20T01:26:54;10.40;;;2.67;;
18505;SDS011;9382;53.242;10.438;2023-12-20T01:29:21;7.60;;;2.67;;
18505;SDS011;9382;53.242;10.438;2023-12-20T01:31:49;11.63;;;3.23;;
18505;SDS011;9382;53.242;10.438;2023-12-20T01:34:17;16.53;;;2.73;;
18505;SDS011;9382;53.242;10.438;2023-12-20T01:36:44;7.50;;;2.87;;
18505;SDS011;9382;53.242;10.438;2023-12-20T01:39:11;10.43;;;3.30;;
18505;SDS011;9382;53.242;10.438;2023-12-20T01:41:42;11.03;;;3.33;;
18505;SDS011;9382;53.242;10.438;2023-12-20T01:44:10;6.63;;;2.40;;
18505;SDS011;9382;53.242;10.438;2023-12-20T01:46:37;10.67;;;3.23;;
18505;SDS011;9382;53.242;10.438;2023-12-20T01:49:04;4.67;;;2.83;;
18505;SDS011;9382;53.242;10.438;2023-12-20T01:51:31;7.37;;;2.53;;
18505;SDS011;9382;53.242;10.438;2023-12-20T01:53:59;12.60;;;3.53;;
18505;SDS011;9382;53.242;10.438;2023-12-20T01:56:26;6.67;;;2.77;;
18505;SDS011;9382;53.242;10.438;2023-12-20T01:58:56;7.73;;;2.53;;
18505;SDS011;9382;53.242;10.438;2023-12-20T02:01:24;9.57;;;3.00;;
18505;SDS011;9382;53.242;10.438;2023-12-20T02:03:53;13.93;;;3.57;;
18505;SDS011;9382;53.242;10.438;2023-12-20T02:06:21;12.80;;;3.00;;
18505;SDS011;9382;53.242;10.438;2023-12-20T02:08:49;10.60;;;3.10;;
18505;SDS011;9382;53.242;10.438;2023-12-20T02:11:16;6.97;;;2.57;;
18505;SDS011;9382;53.242;10.438;2023-12-20T02:13:43;6.27;;;2.77;;
18505;SDS011;9382;53.242;10.438;2023-12-20T02:16:11;6.40;;;2.40;;
18505;SDS011;9382;53.242;10.438;2023-12-20T02:18:38;10.37;;;3.40;;
18505;SDS011;9382;53.242;10.438;2023-12-20T02:21:05;11.70;;;3.17;;
18505;SDS011;9382;53.242;10.438;2023-12-20T02:23:33;9.23;;;3.37;;
18505;SDS011;9382;53.242;10.438;2023-12-20T02:26:00;7.17;;;3.10;;
18505;SDS011;9382;53.242;10.438;2023-12-20T02:28:27;7.10;;;3.13;;
18505;SDS011;9382;53.242;10.438;2023-12-20T02:30:54;9.00;;;2.93;;
18505;SDS011;9382;53.242;10.438;2023-12-20T02:33:21;13.80;;;4.03;;
18505;SDS011;9382;53.242;10.438;2023-12-20T02:35:47;13.37;;;4.17;;
18505;SDS011;9382;53.242;10.438;2023-12-20T02:38:15;11.80;;;3.70;;
18505;SDS011;9382;53.242;10.438;2023-12-20T02:40:43;10.20;;;4.20;;
18505;SDS011;9382;53.242;10.438;2023-12-20T02:43:10;13.17;;;4.57;;
18505;SDS011;9382;53.242;10.438;2023-12-20T02:45:36;9.93;;;4.00;;
18505;SDS011;9382;53.242;10.438;2023-12-20T02:48:03;7.67;;;4.27;;
18505;SDS011;9382;53.242;10.438;2023-12-20T02:50:30;14.57;;;4.37;;
18505;SDS011;9382;53.242;10.438;2023-12-20T02:52:57;9.27;;;4.00;;
18505;SDS011;9382;53.242;10.438;2023-12-20T02:55:24;8.40;;;4.17;;
18505;SDS011;9382;53.242;10.438;2023-12-20T02:57:52;12.23;;;5.00;;
18505;SDS011;9382;53.242;10.438;2023-12-20T03:00:19;12.57;;;5.07;;
18505;SDS011;9382;53.242;10.438;2023-12-20T03:02:45;11.43;;;5.00;;
18505;SDS011;9382;53.242;10.438;2023-12-20T03:05:12;13.40;;;4.37;;
18505;SDS011;9382;53.242;10.438;2023-12-20T03:07:39;11.07;;;4.60;;
18505;SDS011;9382;53.242;10.438;2023-12-20T03:10:06;7.93;;;4.43;;
18505;SDS011;9382;53.242;10.438;2023-12-20T03:12:34;12.30;;;5.40;;
18505;SDS011;9382;53.242;10.438;2023-12-20T03:15:02;14.57;;;5.30;;
18505;SDS011;9382;53.242;10.438;2023-12-20T03:17:29;8.13;;;4.43;;
18505;SDS011;9382;53.242;10.438;2023-12-20T03:19:56;12.27;;;4.77;;
18505;SDS011;9382;53.242;10.438;2023-12-20T03:22:23;11.53;;;4.83;;
18505;SDS011;9382;53.242;10.438;2023-12-20T03:24:49;9.83;;;4.37;;
18505;SDS011;9382;53.242;10.438;2023-12-20T03:27:16;10.93;;;4.63;;
18505;SDS011;9382;53.242;10.438;2023-12-20T03:29:43;10.80;;;4.23;;
18505;SDS011;9382;53.242;10.438;2023-12-20T03:32:11;10.37;;;4.83;;
18505;SDS011;9382;53.242;10.438;2023-12-20T03:34:38;10.87;;;4.20;;
18505;SDS011;9382;53.242;10.438;2023-12-20T03:37:05;9.30;;;4.30;;
18505;SDS011;9382;53.242;10.438;2023-12-20T03:39:31;8.13;;;4.07;;
18505;SDS011;9382;53.242;10.438;2023-12-20T03:41:58;12.33;;;4.27;;
18505;SDS011;9382;53.242;10.438;2023-12-20T03:44:25;8.23;;;4.00;;
18505;SDS011;9382;53.242;10.438;2023-12-20T03:46:51;7.40;;;3.73;;
18505;SDS011;9382;53.242;10.438;2023-12-20T03:49:19;8.33;;;3.93;;
18505;SDS011;9382;53.242;10.438;2023-12-20T03:51:46;12.77;;;4.37;;
18505;SDS011;9382;53.242;10.438;2023-12-20T03:54:13;7.23;;;3.57;;
18505;SDS011;9382;53.242;10.438;2023-12-20T03:56:39;6.90;;;3.97;;
18505;SDS011;9382;53.242;10.438;2023-12-20T03:59:08;12.90;;;3.87;;
18505;SDS011;9382;53.242;10.438;2023-12-20T04:01:35;6.73;;;3.33;;
18505;SDS011;9382;53.242;10.438;2023-12-20T04:04:02;9.23;;;3.67;;
18505;SDS011;9382;53.242;10.438;2023-12-20T04:06:30;7.23;;;3.63;;
18505;SDS011;9382;53.242;10.438;2023-12-20T04:08:57;13.97;;;3.33;;
18505;SDS011;9382;53.242;10.438;2023-12-20T04:11:23;12.30;;;3.37;;
18505;SDS011;9382;53.242;10.438;2023-12-20T04:13:50;10.07;;;3.40;;
18505;SDS011;9382;53.242;10.438;2023-12-20T04:16:17;5.87;;;2.50;;
18505;SDS011;9382;53.242;10.438;2023-12-20T04:18:44;8.97;;;3.10;;
18505;SDS011;9382;53.242;10.438;2023-12-20T04:21:10;6.57;;;2.90;;
18505;SDS011;9382;53.242;10.438;2023-12-20T04:23:38;9.00;;;3.33;;
18505;SDS011;9382;53.242;10.438;2023-12-20T04:26:05;15.07;;;3.90;;
18505;SDS011;9382;53.242;10.438;2023-12-20T04:28:32;9.83;;;3.13;;
18505;SDS011;9382;53.242;10.438;2023-12-20T04:30:59;8.83;;;3.10;;
18505;SDS011;9382;53.242;10.438;2023-12-20T04:33:25;6.47;;;3.13;;
18505;SDS011;9382;53.242;10.438;2023-12-20T04:35:52;8.37;;;3.30;;
18505;SDS011;9382;53.242;10.438;2023-12-20T04:38:19;5.80;;;2.90;;
18505;SDS011;9382;53.242;10.438;2023-12-20T04:40:47;13.33;;;3.40;;
18505;SDS011;9382;53.242;10.438;2023-12-20T04:43:14;9.03;;;3.23;;
18505;SDS011;9382;53.242;10.438;2023-12-20T04:45:40;9.10;;;3.50;;
18505;SDS011;9382;53.242;10.438;2023-12-20T04:48:07;8.70;;;3.47;;
18505;SDS011;9382;53.242;10.438;2023-12-20T04:50:34;11.13;;;3.30;;
18505;SDS011;9382;53.242;10.438;2023-12-20T04:53:01;10.13;;;3.13;;
18505;SDS011;9382;53.242;10.438;2023-12-20T04:55:27;10.53;;;3.77;;
18505;SDS011;9382;53.242;10.438;2023-12-20T04:57:56;11.40;;;3.23;;
18505;SDS011;9382;53.242;10.438;2023-12-20T05:00:23;16.03;;;4.30;;
18505;SDS011;9382;53.242;10.438;2023-12-20T05:02:49;10.23;;;3.30;;
18505;SDS011;9382;53.242;10.438;2023-12-20T05:05:17;7.67;;;3.67;;
18505;SDS011;9382;53.242;10.438;2023-12-20T05:07:44;11.23;;;3.87;;
18505;SDS011;9382;53.242;10.438;2023-12-20T05:10:10;10.73;;;3.57;;
18505;SDS011;9382;53.242;10.438;2023-12-20T05:12:37;9.53;;;4.07;;
18505;SDS011;9382;53.242;10.438;2023-12-20T05:15:06;10.47;;;3.60;;
18505;SDS011;9382;53.242;10.438;2023-12-20T05:17:34;10.43;;;3.77;;
18505;SDS011;9382;53.242;10.438;2023-12-20T05:20:00;7.10;;;3.17;;
18505;SDS011;9382;53.242;10.438;2023-12-20T05:22:27;10.10;;;4.17;;
18505;SDS011;9382;53.242;10.438;2023-12-20T05:24:54;11.87;;;3.93;;
18505;SDS011;9382;53.242;10.438;2023-12-20T05:27:23;11.30;;;3.50;;
18505;SDS011;9382;53.242;10.438;2023-12-20T05:29:50;12.17;;;3.33;;
18505;SDS011;9382;53.242;10.438;2023-12-20T05:32:18;14.37;;;3.97;;
18505;SDS011;9382;53.242;10.438;2023-12-20T05:34:44;11.30;;;4.10;;
18505;SDS011;9382;53.242;10.438;2023-12-20T05:37:11;7.80;;;3.40;;
18505;SDS011;9382;53.242;10.438;2023-12-20T05:39:38;9.10;;;3.50;;
18505;SDS011;9382;53.242;10.438;2023-12-20T05:42:04;11.10;;;3.93;;
18505;SDS011;9382;53.242;10.438;2023-12-20T05:44:31;10.07;;;3.60;;
18505;SDS011;9382;53.242;10.438;2023-12-20T05:46:58;13.83;;;4.20;;
18505;SDS011;9382;53.242;10.438;2023-12-20T05:49:26;17.53;;;4.67;;
18505;SDS011;9382;53.242;10.438;2023-12-20T05:51:53;10.10;;;3.77;;
18505;SDS011;9382;53.242;10.438;2023-12-20T05:54:20;9.33;;;3.70;;
18505;SDS011;9382;53.242;10.438;2023-12-20T05:56:47;8.40;;;3.73;;
18505;SDS011;9382;53.242;10.438;2023-12-20T05:59:14;13.23;;;3.83;;
18505;SDS011;9382;53.242;10.438;2023-12-20T06:01:40;11.70;;;3.67;;
18505;SDS011;9382;53.242;10.438;2023-12-20T06:04:07;8.07;;;3.77;;
18505;SDS011;9382;53.242;10.438;2023-12-20T06:06:39;7.17;;;3.60;;
18505;SDS011;9382;53.242;10.438;2023-12-20T06:09:07;9.40;;;3.63;;
18505;SDS011;9382;53.242;10.438;2023-12-20T06:11:33;10.53;;;3.53;;
18505;SDS011;9382;53.242;10.438;2023-12-20T06:14:00;8.70;;;3.10;;
18505;SDS011;9382;53.242;10.438;2023-12-20T06:16:27;12.60;;;3.97;;
18505;SDS011;9382;53.242;10.438;2023-12-20T06:18:54;10.80;;;3.90;;
18505;SDS011;9382;53.242;10.438;2023-12-20T06:21:21;9.13;;;3.90;;
18505;SDS011;9382;53.242;10.438;2023-12-20T06:23:49;9.10;;;4.53;;
18505;SDS011;9382;53.242;10.438;2023-12-20T06:26:15;12.33;;;4.13;;
18505;SDS011;9382;53.242;10.438;2023-12-20T06:28:42;8.67;;;4.10;;
18505;SDS011;9382;53.242;10.438;2023-12-20T06:31:09;12.43;;;4.93;;
18505;SDS011;9382;53.242;10.438;2023-12-20T06:33:36;6.87;;;3.70;;
18505;SDS011;9382;53.242;10.438;2023-12-20T06:36:03;9.53;;;4.07;;
18505;SDS011;9382;53.242;10.438;2023-12-20T06:38:30;17.70;;;6.70;;
18505;SDS011;9382;53.242;10.438;2023-12-20T06:40:58;15.60;;;4.73;;
18505;SDS011;9382;53.242;10.438;2023-12-20T06:43:25;12.00;;;4.50;;
18505;SDS011;9382;53.242;10.438;2023-12-20T06:45:51;11.43;;;4.50;;
18505;SDS011;9382;53.242;10.438;2023-12-20T06:48:18;14.67;;;4.13;;
18505;SDS011;9382;53.242;10.438;2023-12-20T06:50:45;9.73;;;4.07;;
18505;SDS011;9382;53.242;10.438;2023-12-20T06:53:12;17.03;;;4.00;;
18505;SDS011;9382;53.242;10.438;2023-12-20T06:55:39;9.87;;;4.70;;
18505;SDS011;9382;53.242;10.438;2023-12-20T06:58:08;14.73;;;4.50;;
18505;SDS011;9382;53.242;10.438;2023-12-20T07:00:41;13.97;;;4.40;;
18505;SDS011;9382;53.242;10.438;2023-12-20T07:03:09;12.73;;;4.47;;
18505;SDS011;9382;53.242;10.438;2023-12-20T07:05:36;12.13;;;4.10;;
18505;SDS011;9382;53.242;10.438;2023-12-20T07:08:03;15.53;;;4.37;;
18505;SDS011;9382;53.242;10.438;2023-12-20T07:10:30;18.00;;;4.43;;
18505;SDS011;9382;53.242;10.438;2023-12-20T07:12:56;10.37;;;3.60;;
18505;SDS011;9382;53.242;10.438;2023-12-20T07:15:24;12.43;;;3.73;;
18505;SDS011;9382;53.242;10.438;2023-12-20T07:17:51;15.23;;;4.27;;
18505;SDS011;9382;53.242;10.438;2023-12-20T07:20:19;15.10;;;4.43;;
18505;SDS011;9382;53.242;10.438;2023-12-20T07:22:46;10.80;;;3.90;;
18505;SDS011;9382;53.242;10.438;2023-12-20T07:25:13;10.03;;;4.17;;
18505;SDS011;9382;53.242;10.438;2023-12-20T07:27:39;14.30;;;3.77;;
18505;SDS011;9382;53.242;10.438;2023-12-20T07:30:07;11.53;;;3.90;;
18505;SDS011;9382;53.242;10.438;2023-12-20T07:32:35;15.83;;;4.60;;
18505;SDS011;9382;53.242;10.438;2023-12-20T07:35:02;11.63;;;4.27;;
18505;SDS011;9382;53.242;10.438;2023-12-20T07:37:32;14.83;;;4.60;;
18505;SDS011;9382;53.242;10.438;2023-12-20T07:39:59;12.17;;;4.20;;
18505;SDS011;9382;53.242;10.438;2023-12-20T07:42:25;15.83;;;4.07;;
18505;SDS011;9382;53.242;10.438;2023-12-20T07:44:52;13.93;;;3.93;;
18505;SDS011;9382;53.242;10.438;2023-12-20T07:47:20;9.63;;;3.57;;
18505;SDS011;9382;53.242;10.438;2023-12-20T07:49:48;11.07;;;3.87;;
18505;SDS011;9382;53.242;10.438;2023-12-20T07:52:16;11.60;;;3.73;;
18505;SDS011;9382;53.242;10.438;2023-12-20T07:54:43;13.80;;;4.20;;
18505;SDS011;9382;53.242;10.438;2023-12-20T07:57:10;16.30;;;3.70;;
18505;SDS011;9382;53.242;10.438;2023-12-20T07:59:37;12.27;;;3.30;;
18505;SDS011;9382;53.242;10.438;2023-12-20T08:02:06;11.60;;;3.53;;
18505;SDS011;9382;53.242;10.438;2023-12-20T08:04:33;13.67;;;3.80;;
18505;SDS011;9382;53.242;10.438;2023-12-20T08:07:01;15.37;;;4.40;;
18505;SDS011;9382;53.242;10.438;2023-12-20T08:09:29;10.83;;;3.60;;
18505;SDS011;9382;53.242;10.438;2023-12-20T08:11:57;13.60;;;3.53;;
18505;SDS011;9382;53.242;10.438;2023-12-20T08:14:24;13.00;;;3.80;;
18505;SDS011;9382;53.242;10.438;2023-12-20T08:16:51;15.23;;;3.97;;
18505;SDS011;9382;53.242;10.438;2023-12-20T08:19:18;13.77;;;3.67;;
18505;SDS011;9382;53.242;10.438;2023-12-20T08:21:45;12.67;;;3.83;;
18505;SDS011;9382;53.242;10.438;2023-12-20T08:24:13;16.83;;;4.13;;
18505;SDS011;9382;53.242;10.438;2023-12-20T08:26:39;16.07;;;4.13;;
18505;SDS011;9382;53.242;10.438;2023-12-20T08:29:06;11.80;;;3.77;;
18505;SDS011;9382;53.242;10.438;2023-12-20T08:31:33;14.23;;;3.90;;
18505;SDS011;9382;53.242;10.438;2023-12-20T08:34:00;13.80;;;3.93;;
18505;SDS011;9382;53.242;10.438;2023-12-20T08:36:27;14.53;;;4.57;;
18505;SDS011;9382;53.242;10.438;2023-12-20T08:38:53;11.73;;;4.10;;
18505;SDS011;9382;53.242;10.438;2023-12-20T08:41:22;14.70;;;4.40;;
18505;SDS011;9382;53.242;10.438;2023-12-20T08:43:49;14.20;;;4.30;;
18505;SDS011;9382;53.242;10.438;2023-12-20T08:46:16;10.20;;;4.23;;
18505;SDS011;9382;53.242;10.438;2023-12-20T08:48:43;10.00;;;4.10;;
18505;SDS011;9382;53.242;10.438;2023-12-20T08:51:10;9.07;;;4.30;;
18505;SDS011;9382;53.242;10.438;2023-12-20T08:53:36;16.20;;;4.40;;
18505;SDS011;9382;53.242;10.438;2023-12-20T08:56:03;12.13;;;4.17;;
18505;SDS011;9382;53.242;10.438;2023-12-20T08:58:32;15.37;;;4.33;;
18505;SDS011;9382;53.242;10.438;2023-12-20T09:01:00;11.43;;;4.17;;
18505;SDS011;9382;53.242;10.438;2023-12-20T09:03:27;13.87;;;3.67;;
18505;SDS011;9382;53.242;10.438;2023-12-20T09:05:57;16.27;;;4.17;;
18505;SDS011;9382;53.242;10.438;2023-12-20T09:08:23;20.63;;;4.67;;
18505;SDS011;9382;53.242;10.438;2023-12-20T09:10:50;19.67;;;4.80;;
18505;SDS011;9382;53.242;10.438;2023-12-20T09:13:17;13.17;;;3.80;;
18505;SDS011;9382;53.242;10.438;2023-12-20T09:15:45;10.60;;;4.00;;
18505;SDS011;9382;53.242;10.438;2023-12-20T09:18:12;17.20;;;3.90;;
18505;SDS011;9382;53.242;10.438;2023-12-20T09:20:38;8.03;;;3.83;;
18505;SDS011;9382;53.242;10.438;2023-12-20T09:23:05;12.23;;;3.93;;
18505;SDS011;9382;53.242;10.438;2023-12-20T09:25:33;9.87;;;3.43;;
18505;SDS011;9382;53.242;10.438;2023-12-20T09:28:00;12.47;;;3.90;;
18505;SDS011;9382;53.242;10.438;2023-12-20T09:30:27;11.00;;;3.97;;
18505;SDS011;9382;53.242;10.438;2023-12-20T09:32:55;13.40;;;4.43;;
18505;SDS011;9382;53.242;10.438;2023-12-20T09:35:22;14.23;;;4.27;;
18505;SDS011;9382;53.242;10.438;2023-12-20T09:37:51;13.57;;;4.63;;
18505;SDS011;9382;53.242;10.438;2023-12-20T09:40:18;14.27;;;3.97;;
18505;SDS011;9382;53.242;10.438;2023-12-20T09:42:47;13.93;;;4.27;;
18505;SDS011;9382;53.242;10.438;2023-12-20T09:45:22;16.47;;;4.60;;
18505;SDS011;9382;53.242;10.438;2023-12-20T09:47:49;11.23;;;4.40;;
18505;SDS011;9382;53.242;10.438;2023-12-20T09:50:18;18.73;;;4.53;;
18505;SDS011;9382;53.242;10.438;2023-12-20T09:52:46;16.23;;;4.50;;
18505;SDS011;9382;53.242;10.438;2023-12-20T09:55:16;14.37;;;4.43;;
18505;SDS011;9382;53.242;10.438;2023-12-20T09:57:44;22.87;;;5.60;;
18505;SDS011;9382;53.242;10.438;2023-12-20T10:00:11;10.33;;;3.90;;
18505;SDS011;9382;53.242;10.438;2023-12-20T10:02:40;14.73;;;4.33;;
18505;SDS011;9382;53.242;10.438;2023-12-20T10:05:12;10.90;;;3.70;;
18505;SDS011;9382;53.242;10.438;2023-12-20T10:07:45;13.27;;;4.33;;
18505;SDS011;9382;53.242;10.438;2023-12-20T10:10:12;12.27;;;3.50;;
18505;SDS011;9382;53.242;10.438;2023-12-20T10:12:39;4.70;;;2.10;;
18505;SDS011;9382;53.242;10.438;2023-12-20T10:15:06;3.53;;;2.27;;
18505;SDS011;9382;53.242;10.438;2023-12-20T10:17:35;6.47;;;2.10;;
18505;SDS011;9382;53.242;10.438;2023-12-20T10:20:02;5.60;;;2.70;;
18505;SDS011;9382;53.242;10.438;2023-12-20T10:22:34;3.53;;;2.13;;
18505;SDS011;9382;53.242;10.438;2023-12-20T10:25:02;3.73;;;2.13;;
18505;SDS011;9382;53.242;10.438;2023-12-20T10:27:29;3.80;;;1.80;;
18505;SDS011;9382;53.242;10.438;2023-12-20T10:29:58;3.23;;;1.77;;
18505;SDS011;9382;53.242;10.438;2023-12-20T10:32:25;2.63;;;1.70;;
18505;SDS011;9382;53.242;10.438;2023-12-20T10:34:54;1.60;;;1.50;;
18505;SDS011;9382;53.242;10.438;2023-12-20T10:37:21;3.17;;;1.67;;
18505;SDS011;9382;53.242;10.438;2023-12-20T10:39:49;2.93;;;2.00;;
18505;SDS011;9382;53.242;10.438;2023-12-20T10:42:19;2.33;;;1.70;;
18505;SDS011;9382;53.242;10.438;2023-12-20T10:44:47;1.50;;;1.40;;
18505;SDS011;9382;53.242;10.438;2023-12-20T10:47:15;3.57;;;1.70;;
18505;SDS011;9382;53.242;10.438;2023-12-20T10:49:43;2.23;;;1.70;;
18505;SDS011;9382;53.242;10.438;2023-12-20T10:52:13;2.50;;;1.60;;
18505;SDS011;9382;53.242;10.438;2023-12-20T10:54:40;1.63;;;1.53;;
18505;SDS011;9382;53.242;10.438;2023-12-20T10:57:07;2.73;;;1.90;;
18505;SDS011;9382;53.242;10.438;2023-12-20T10:59:36;2.40;;;1.80;;
18505;SDS011;9382;53.242;10.438;2023-12-20T11:02:04;1.60;;;1.50;;
18505;SDS011;9382;53.242;10.438;2023-12-20T11:04:34;3.13;;;1.83;;
18505;SDS011;9382;53.242;10.438;2023-12-20T11:07:15;2.60;;;1.50;;
18505;SDS011;9382;53.242;10.438;2023-12-20T11:09:47;2.83;;;1.60;;
18505;SDS011;9382;53.242;10.438;2023-12-20T11:12:22;1.77;;;1.50;;
18505;SDS011;9382;53.242;10.438;2023-12-20T11:14:59;1.60;;;1.30;;
18505;SDS011;9382;53.242;10.438;2023-12-20T11:17:29;1.53;;;1.33;;
18505;SDS011;9382;53.242;10.438;2023-12-20T11:20:03;1.87;;;1.33;;
18505;SDS011;9382;53.242;10.438;2023-12-20T11:22:31;1.77;;;1.33;;
18505;SDS011;9382;53.242;10.438;2023-12-20T11:25:02;3.20;;;1.50;;
18505;SDS011;9382;53.242;10.438;2023-12-20T11:27:30;2.37;;;1.37;;
18505;SDS011;9382;53.242;10.438;2023-12-20T11:29:58;1.73;;;1.20;;
18505;SDS011;9382;53.242;10.438;2023-12-20T11:32:28;3.60;;;1.77;;
18505;SDS011;9382;53.242;10.438;2023-12-20T11:34:55;4.80;;;1.63;;
18505;SDS011;9382;53.242;10.438;2023-12-20T11:37:28;3.80;;;1.60;;
18505;SDS011;9382;53.242;10.438;2023-12-20T11:39:59;2.70;;;1.77;;
18505;SDS011;9382;53.242;10.438;2023-12-20T11:42:29;2.47;;;1.60;;
18505;SDS011;9382;53.242;10.438;2023-12-20T11:45:00;3.83;;;1.77;;
18505;SDS011;9382;53.242;10.438;2023-12-20T11:47:28;4.67;;;1.50;;
18505;SDS011;9382;53.242;10.438;2023-12-20T11:49:56;4.13;;;1.70;;
18505;SDS011;9382;53.242;10.438;2023-12-20T11:52:25;3.60;;;1.53;;
18505;SDS011;9382;53.242;10.438;2023-12-20T11:54:54;9.23;;;2.17;;
18505;SDS011;9382;53.242;10.438;2023-12-20T11:57:21;3.83;;;1.57;;
18505;SDS011;9382;53.242;10.438;2023-12-20T11:59:47;2.47;;;1.70;;
18505;SDS011;9382;53.242;10.438;2023-12-20T12:02:18;3.77;;;1.80;;
18505;SDS011;9382;53.242;10.438;2023-12-20T12:04:53;4.10;;;1.90;;
18505;SDS011;9382;53.242;10.438;2023-12-20T12:07:20;3.00;;;2.00;;
18505;SDS011;9382;53.242;10.438;2023-12-20T12:09:47;3.60;;;1.80;;
18505;SDS011;9382;53.242;10.438;2023-12-20T12:12:14;4.20;;;1.60;;
18505;SDS011;9382;53.242;10.438;2023-12-20T12:14:41;4.53;;;1.83;;
18505;SDS011;9382;53.242;10.438;2023-12-20T12:17:11;7.07;;;1.83;;
18505;SDS011;9382;53.242;10.438;2023-12-20T12:19:40;5.10;;;1.60;;
18505;SDS011;9382;53.242;10.438;2023-12-20T12:22:07;4.93;;;1.87;;
18505;SDS011;9382;53.242;10.438;2023-12-20T12:24:37;5.90;;;1.63;;
18505;SDS011;9382;53.242;10.438;2023-12-20T12:27:07;4.47;;;1.77;;
18505;SDS011;9382;53.242;10.438;2023-12-20T12:29:36;6.40;;;2.07;;
18505;SDS011;9382;53.242;10.438;2023-12-20T12:32:04;4.90;;;1.90;;
18505;SDS011;9382;53.242;10.438;2023-12-20T12:34:32;4.70;;;1.80;;
18505;SDS011;9382;53.242;10.438;2023-12-20T12:37:01;4.90;;;1.90;;
18505;SDS011;9382;53.242;10.438;2023-12-20T12:39:30;6.07;;;2.23;;
18505;SDS011;9382;53.242;10.438;2023-12-20T12:41:56;5.27;;;1.67;;
18505;SDS011;9382;53.242;10.438;2023-12-20T12:44:23;6.13;;;2.07;;
18505;SDS011;9382;53.242;10.438;2023-12-20T12:46:51;6.63;;;1.83;;
18505;SDS011;9382;53.242;10.438;2023-12-20T12:49:18;6.53;;;1.90;;
18505;SDS011;9382;53.242;10.438;2023-12-20T12:51:46;7.07;;;2.10;;
18505;SDS011;9382;53.242;10.438;2023-12-20T12:54:14;6.73;;;1.80;;
18505;SDS011;9382;53.242;10.438;2023-12-20T12:56:43;8.73;;;2.30;;
18505;SDS011;9382;53.242;10.438;2023-12-20T12:59:12;5.73;;;2.00;;
18505;SDS011;9382;53.242;10.438;2023-12-20T13:01:38;5.67;;;2.13;;
18505;SDS011;9382;53.242;10.438;2023-12-20T13:04:05;3.17;;;1.87;;
18505;SDS011;9382;53.242;10.438;2023-12-20T13:06:35;3.27;;;1.90;;
18505;SDS011;9382;53.242;10.438;2023-12-20T13:09:05;4.80;;;1.77;;
18505;SDS011;9382;53.242;10.438;2023-12-20T13:11:42;5.10;;;1.83;;
18505;SDS011;9382;53.242;10.438;2023-12-20T13:14:09;7.37;;;2.33;;
18505;SDS011;9382;53.242;10.438;2023-12-20T13:16:40;2.97;;;1.47;;
18505;SDS011;9382;53.242;10.438;2023-12-20T13:19:07;3.10;;;1.57;;
18505;SDS011;9382;53.242;10.438;2023-12-20T13:21:34;5.73;;;1.63;;
18505;SDS011;9382;53.242;10.438;2023-12-20T13:24:01;2.10;;;1.67;;
18505;SDS011;9382;53.242;10.438;2023-12-20T13:26:28;3.00;;;1.87;;
18505;SDS011;9382;53.242;10.438;2023-12-20T13:28:56;2.77;;;1.70;;
18505;SDS011;9382;53.242;10.438;2023-12-20T13:31:23;3.30;;;1.63;;
18505;SDS011;9382;53.242;10.438;2023-12-20T13:33:50;2.80;;;1.50;;
18505;SDS011;9382;53.242;10.438;2023-12-20T13:36:17;7.20;;;1.83;;
18505;SDS011;9382;53.242;10.438;2023-12-20T13:38:44;3.43;;;1.53;;
18505;SDS011;9382;53.242;10.438;2023-12-20T13:41:11;7.93;;;2.50;;
18505;SDS011;9382;53.242;10.438;2023-12-20T13:43:38;3.33;;;1.93;;
18505;SDS011;9382;53.242;10.438;2023-12-20T13:46:06;6.03;;;1.80;;
18505;SDS011;9382;53.242;10.438;2023-12-20T13:48:32;6.50;;;2.27;;
18505;SDS011;9382;53.242;10.438;2023-12-20T13:50:59;7.93;;;3.00;;
18505;SDS011;9382;53.242;10.438;2023-12-20T13:53:27;9.97;;;2.80;;
18505;SDS011;9382;53.242;10.438;2023-12-20T13:55:54;5.60;;;2.30;;
18505;SDS011;9382;53.242;10.438;2023-12-20T13:58:21;8.83;;;2.50;;
18505;SDS011;9382;53.242;10.438;2023-12-20T14:00:48;7.33;;;2.40;;
18505;SDS011;9382;53.242;10.438;2023-12-20T14:03:16;7.80;;;2.80;;
18505;SDS011;9382;53.242;10.438;2023-12-20T14:05:45;4.83;;;2.83;;
18505;SDS011;9382;53.242;10.438;2023-12-20T14:08:11;13.00;;;2.87;;
18505;SDS011;9382;53.242;10.438;2023-12-20T14:10:38;9.63;;;2.97;;
18505;SDS011;9382;53.242;10.438;2023-12-20T14:13:11;10.70;;;3.20;;
18505;SDS011;9382;53.242;10.438;2023-12-20T14:15:38;11.50;;;3.07;;
18505;SDS011;9382;53.242;10.438;2023-12-20T14:18:05;9.00;;;3.10;;
18505;SDS011;9382;53.242;10.438;2023-12-20T14:20:35;6.97;;;2.87;;
18505;SDS011;9382;53.242;10.438;2023-12-20T14:23:05;10.77;;;2.83;;
18505;SDS011;9382;53.242;10.438;2023-12-20T14:25:32;15.07;;;3.27;;
18505;SDS011;9382;53.242;10.438;2023-12-20T14:27:59;8.53;;;2.97;;
18505;SDS011;9382;53.242;10.438;2023-12-20T14:30:25;11.60;;;3.10;;
18505;SDS011;9382;53.242;10.438;2023-12-20T14:32:53;10.33;;;3.10;;
18505;SDS011;9382;53.242;10.438;2023-12-20T14:35:20;8.30;;;3.00;;
18505;SDS011;9382;53.242;10.438;2023-12-20T14:37:48;12.00;;;3.20;;
18505;SDS011;9382;53.242;10.438;2023-12-20T14:40:15;4.93;;;2.83;;
18505;SDS011;9382;53.242;10.438;2023-12-20T14:42:42;7.37;;;3.20;;